Ana Sayfa
METAR-TAF:

METAR-TAF

Havaalanları :

Altus, Oklahoma, Amerika Birleşik Devletleri

Enlem: 34-41-55N, Boylam: 099-20-17W, yükseklik: 437 m

Güncel hava durumu gözlemi

Rapor saat 07:15 UTC de 15 dakika önce yapıldı.
Rüzgar batı/güneybatıdan 10 kt
Sıcaklık 17°C
Nem 94%
Basınç 1011 hPa
Görüş mesafesi: 16.1 km
11000 ft yükseklikte çok bulutlu

METAR: KAXS 250715Z AUTO 24010KT 10SM OVC110 17/16 A2984 RMK AO2 T01700157

Saat: 02:30 (07:30 UTC)


TAF: eksik

4.000'den fazla havaalanı için hava durumu gözlemleri ve tahminleri (METAR ve TAF raporları).

Kullanılabilir istasyonlar harita üzerinde sarı ve kırmızı noktalarla gösterilir.

İstasyonun adını görmek için fareyi noktanın üzerinde gezdirin.

Sonrasında hava gözlem ve tahminlerini görmek için tıklayın.

Haritayı değiştirmek için: yaklaştırmak için siyah artı işaretli yeşil düğmeye ve uzaklaştırmak için de eksi işaretli düğmeye hızla tıklayın; bitişik haritalar için yeşil okları kullanın.


METAR-TAF: